sensor_id;sensor_type;location;lat;lon;timestamp;P1;durP1;ratioP1;P2;durP2;ratioP2
42036;SDS011;75222;52.004;5.908;2024-01-27T00:00:04;2.65;;;1.50;;
42036;SDS011;75222;52.004;5.908;2024-01-27T00:02:30;2.65;;;1.25;;
42036;SDS011;75222;52.004;5.908;2024-01-27T00:04:56;2.45;;;1.50;;
42036;SDS011;75222;52.004;5.908;2024-01-27T00:07:21;3.22;;;1.20;;
42036;SDS011;75222;52.004;5.908;2024-01-27T00:09:47;1.77;;;1.40;;
42036;SDS011;75222;52.004;5.908;2024-01-27T00:12:12;4.63;;;1.98;;
42036;SDS011;75222;52.004;5.908;2024-01-27T00:14:38;4.68;;;1.60;;
42036;SDS011;75222;52.004;5.908;2024-01-27T00:17:04;4.85;;;1.38;;
42036;SDS011;75222;52.004;5.908;2024-01-27T00:19:30;2.03;;;1.40;;
42036;SDS011;75222;52.004;5.908;2024-01-27T00:21:55;3.60;;;1.40;;
42036;SDS011;75222;52.004;5.908;2024-01-27T00:24:21;3.08;;;1.45;;
42036;SDS011;75222;52.004;5.908;2024-01-27T00:26:47;3.35;;;1.40;;
42036;SDS011;75222;52.004;5.908;2024-01-27T00:29:12;3.05;;;1.42;;
42036;SDS011;75222;52.004;5.908;2024-01-27T00:31:38;1.63;;;1.38;;
42036;SDS011;75222;52.004;5.908;2024-01-27T00:34:04;2.55;;;1.30;;
42036;SDS011;75222;52.004;5.908;2024-01-27T00:36:29;2.47;;;1.25;;
42036;SDS011;75222;52.004;5.908;2024-01-27T00:38:55;3.05;;;1.25;;
42036;SDS011;75222;52.004;5.908;2024-01-27T00:41:20;2.58;;;1.30;;
42036;SDS011;75222;52.004;5.908;2024-01-27T00:43:46;2.63;;;1.10;;
42036;SDS011;75222;52.004;5.908;2024-01-27T00:46:12;1.50;;;1.10;;
42036;SDS011;75222;52.004;5.908;2024-01-27T00:48:37;5.78;;;1.30;;
42036;SDS011;75222;52.004;5.908;2024-01-27T00:51:03;2.70;;;1.33;;
42036;SDS011;75222;52.004;5.908;2024-01-27T00:53:29;3.13;;;1.45;;
42036;SDS011;75222;52.004;5.908;2024-01-27T00:55:54;3.08;;;1.30;;
42036;SDS011;75222;52.004;5.908;2024-01-27T00:58:20;4.32;;;1.30;;
42036;SDS011;75222;52.004;5.908;2024-01-27T01:00:45;2.05;;;1.17;;
42036;SDS011;75222;52.004;5.908;2024-01-27T01:03:11;2.45;;;1.20;;
42036;SDS011;75222;52.004;5.908;2024-01-27T01:05:36;1.88;;;1.15;;
42036;SDS011;75222;52.004;5.908;2024-01-27T01:08:02;3.70;;;1.40;;
42036;SDS011;75222;52.004;5.908;2024-01-27T01:10:28;1.98;;;1.27;;
42036;SDS011;75222;52.004;5.908;2024-01-27T01:12:54;4.07;;;1.50;;
42036;SDS011;75222;52.004;5.908;2024-01-27T01:15:19;3.65;;;1.40;;
42036;SDS011;75222;52.004;5.908;2024-01-27T01:17:45;4.65;;;1.63;;
42036;SDS011;75222;52.004;5.908;2024-01-27T01:20:11;3.05;;;1.48;;
42036;SDS011;75222;52.004;5.908;2024-01-27T01:22:36;1.60;;;1.10;;
42036;SDS011;75222;52.004;5.908;2024-01-27T01:25:02;1.30;;;1.20;;
42036;SDS011;75222;52.004;5.908;2024-01-27T01:27:28;3.22;;;1.30;;
42036;SDS011;75222;52.004;5.908;2024-01-27T01:29:54;3.13;;;1.20;;
42036;SDS011;75222;52.004;5.908;2024-01-27T01:32:19;3.63;;;1.35;;
42036;SDS011;75222;52.004;5.908;2024-01-27T01:34:45;3.25;;;1.42;;
42036;SDS011;75222;52.004;5.908;2024-01-27T01:37:11;3.30;;;1.33;;
42036;SDS011;75222;52.004;5.908;2024-01-27T01:39:38;1.88;;;1.23;;
42036;SDS011;75222;52.004;5.908;2024-01-27T01:42:04;2.83;;;1.33;;
42036;SDS011;75222;52.004;5.908;2024-01-27T01:44:30;4.45;;;1.23;;
42036;SDS011;75222;52.004;5.908;2024-01-27T01:46:56;2.53;;;1.42;;
42036;SDS011;75222;52.004;5.908;2024-01-27T01:49:23;3.92;;;1.50;;
42036;SDS011;75222;52.004;5.908;2024-01-27T01:51:49;3.85;;;1.70;;
42036;SDS011;75222;52.004;5.908;2024-01-27T01:54:14;3.30;;;1.30;;
42036;SDS011;75222;52.004;5.908;2024-01-27T01:56:42;1.77;;;1.30;;
42036;SDS011;75222;52.004;5.908;2024-01-27T01:59:07;2.25;;;1.05;;
42036;SDS011;75222;52.004;5.908;2024-01-27T02:01:33;2.63;;;1.33;;
42036;SDS011;75222;52.004;5.908;2024-01-27T02:03:58;2.35;;;1.20;;
42036;SDS011;75222;52.004;5.908;2024-01-27T02:06:24;3.03;;;1.35;;
42036;SDS011;75222;52.004;5.908;2024-01-27T02:08:50;2.90;;;1.25;;
42036;SDS011;75222;52.004;5.908;2024-01-27T02:11:16;2.67;;;1.33;;
42036;SDS011;75222;52.004;5.908;2024-01-27T02:13:42;4.63;;;1.50;;
42036;SDS011;75222;52.004;5.908;2024-01-27T02:16:08;2.55;;;1.15;;
42036;SDS011;75222;52.004;5.908;2024-01-27T02:18:33;1.85;;;1.20;;
42036;SDS011;75222;52.004;5.908;2024-01-27T02:20:59;3.30;;;1.83;;
42036;SDS011;75222;52.004;5.908;2024-01-27T02:23:25;3.20;;;1.30;;
42036;SDS011;75222;52.004;5.908;2024-01-27T02:25:50;2.55;;;1.35;;
42036;SDS011;75222;52.004;5.908;2024-01-27T02:28:16;2.17;;;1.20;;
42036;SDS011;75222;52.004;5.908;2024-01-27T02:30:42;1.80;;;1.02;;
42036;SDS011;75222;52.004;5.908;2024-01-27T02:33:08;2.38;;;1.40;;
42036;SDS011;75222;52.004;5.908;2024-01-27T02:35:33;3.67;;;1.20;;
42036;SDS011;75222;52.004;5.908;2024-01-27T02:37:59;3.10;;;1.50;;
42036;SDS011;75222;52.004;5.908;2024-01-27T02:40:24;3.22;;;1.42;;
42036;SDS011;75222;52.004;5.908;2024-01-27T02:42:50;2.30;;;1.40;;
42036;SDS011;75222;52.004;5.908;2024-01-27T02:45:16;2.80;;;1.30;;
42036;SDS011;75222;52.004;5.908;2024-01-27T02:47:41;2.33;;;1.40;;
42036;SDS011;75222;52.004;5.908;2024-01-27T02:50:07;3.25;;;1.63;;
42036;SDS011;75222;52.004;5.908;2024-01-27T02:52:33;4.53;;;2.25;;
42036;SDS011;75222;52.004;5.908;2024-01-27T02:54:59;3.72;;;1.55;;
42036;SDS011;75222;52.004;5.908;2024-01-27T02:57:25;2.35;;;1.58;;
42036;SDS011;75222;52.004;5.908;2024-01-27T02:59:50;2.58;;;1.80;;
42036;SDS011;75222;52.004;5.908;2024-01-27T03:02:16;1.95;;;1.30;;
42036;SDS011;75222;52.004;5.908;2024-01-27T03:04:42;2.22;;;1.33;;
42036;SDS011;75222;52.004;5.908;2024-01-27T03:07:07;3.42;;;1.25;;
42036;SDS011;75222;52.004;5.908;2024-01-27T03:09:33;3.63;;;1.40;;
42036;SDS011;75222;52.004;5.908;2024-01-27T03:11:58;2.80;;;1.40;;
42036;SDS011;75222;52.004;5.908;2024-01-27T03:14:24;2.83;;;1.42;;
42036;SDS011;75222;52.004;5.908;2024-01-27T03:16:50;1.90;;;1.30;;
42036;SDS011;75222;52.004;5.908;2024-01-27T03:19:16;2.97;;;1.40;;
42036;SDS011;75222;52.004;5.908;2024-01-27T03:21:41;3.80;;;1.25;;
42036;SDS011;75222;52.004;5.908;2024-01-27T03:24:07;3.13;;;1.40;;
42036;SDS011;75222;52.004;5.908;2024-01-27T03:26:32;3.50;;;1.55;;
42036;SDS011;75222;52.004;5.908;2024-01-27T03:28:58;2.05;;;1.30;;
42036;SDS011;75222;52.004;5.908;2024-01-27T03:31:29;4.35;;;1.50;;
42036;SDS011;75222;52.004;5.908;2024-01-27T03:33:55;2.03;;;1.40;;
42036;SDS011;75222;52.004;5.908;2024-01-27T03:36:21;4.63;;;1.63;;
42036;SDS011;75222;52.004;5.908;2024-01-27T03:38:47;3.33;;;1.50;;
42036;SDS011;75222;52.004;5.908;2024-01-27T03:41:12;3.55;;;1.60;;
42036;SDS011;75222;52.004;5.908;2024-01-27T03:43:38;2.20;;;1.38;;
42036;SDS011;75222;52.004;5.908;2024-01-27T03:46:04;3.53;;;1.80;;
42036;SDS011;75222;52.004;5.908;2024-01-27T03:48:29;5.43;;;1.77;;
42036;SDS011;75222;52.004;5.908;2024-01-27T03:50:55;4.60;;;2.03;;
42036;SDS011;75222;52.004;5.908;2024-01-27T03:53:21;3.33;;;1.90;;
42036;SDS011;75222;52.004;5.908;2024-01-27T03:55:46;4.25;;;1.60;;
42036;SDS011;75222;52.004;5.908;2024-01-27T03:58:12;4.93;;;2.00;;
42036;SDS011;75222;52.004;5.908;2024-01-27T04:00:37;3.88;;;2.08;;
42036;SDS011;75222;52.004;5.908;2024-01-27T04:03:03;4.57;;;1.85;;
42036;SDS011;75222;52.004;5.908;2024-01-27T04:05:29;3.55;;;1.70;;
42036;SDS011;75222;52.004;5.908;2024-01-27T04:07:55;3.78;;;1.60;;
42036;SDS011;75222;52.004;5.908;2024-01-27T04:10:21;4.05;;;1.85;;
42036;SDS011;75222;52.004;5.908;2024-01-27T04:12:47;5.63;;;2.40;;
42036;SDS011;75222;52.004;5.908;2024-01-27T04:15:13;7.82;;;2.38;;
42036;SDS011;75222;52.004;5.908;2024-01-27T04:17:39;4.78;;;2.40;;
42036;SDS011;75222;52.004;5.908;2024-01-27T04:20:06;3.75;;;1.90;;
42036;SDS011;75222;52.004;5.908;2024-01-27T04:22:33;3.58;;;1.80;;
42036;SDS011;75222;52.004;5.908;2024-01-27T04:24:59;5.57;;;1.90;;
42036;SDS011;75222;52.004;5.908;2024-01-27T04:27:28;3.05;;;2.08;;
42036;SDS011;75222;52.004;5.908;2024-01-27T04:29:53;2.35;;;1.60;;
42036;SDS011;75222;52.004;5.908;2024-01-27T04:32:19;6.90;;;2.50;;
42036;SDS011;75222;52.004;5.908;2024-01-27T04:34:46;5.10;;;2.10;;
42036;SDS011;75222;52.004;5.908;2024-01-27T04:37:12;4.97;;;2.28;;
42036;SDS011;75222;52.004;5.908;2024-01-27T04:39:37;3.45;;;1.60;;
42036;SDS011;75222;52.004;5.908;2024-01-27T04:42:03;3.95;;;1.70;;
42036;SDS011;75222;52.004;5.908;2024-01-27T04:44:31;2.55;;;1.77;;
42036;SDS011;75222;52.004;5.908;2024-01-27T04:46:56;2.70;;;1.60;;
42036;SDS011;75222;52.004;5.908;2024-01-27T04:49:22;3.08;;;1.60;;
42036;SDS011;75222;52.004;5.908;2024-01-27T04:51:48;2.53;;;1.50;;
42036;SDS011;75222;52.004;5.908;2024-01-27T04:54:13;3.95;;;2.20;;
42036;SDS011;75222;52.004;5.908;2024-01-27T04:56:39;4.13;;;2.13;;
42036;SDS011;75222;52.004;5.908;2024-01-27T04:59:04;2.88;;;1.80;;
42036;SDS011;75222;52.004;5.908;2024-01-27T05:01:30;3.25;;;2.10;;
42036;SDS011;75222;52.004;5.908;2024-01-27T05:03:56;4.35;;;2.20;;
42036;SDS011;75222;52.004;5.908;2024-01-27T05:06:22;5.18;;;2.78;;
42036;SDS011;75222;52.004;5.908;2024-01-27T05:08:47;5.15;;;2.30;;
42036;SDS011;75222;52.004;5.908;2024-01-27T05:11:13;2.67;;;2.00;;
42036;SDS011;75222;52.004;5.908;2024-01-27T05:13:39;3.72;;;1.80;;
42036;SDS011;75222;52.004;5.908;2024-01-27T05:16:05;5.18;;;2.40;;
42036;SDS011;75222;52.004;5.908;2024-01-27T05:18:31;3.33;;;2.08;;
42036;SDS011;75222;52.004;5.908;2024-01-27T05:20:56;5.10;;;2.10;;
42036;SDS011;75222;52.004;5.908;2024-01-27T05:23:22;5.10;;;2.58;;
42036;SDS011;75222;52.004;5.908;2024-01-27T05:25:48;4.80;;;2.88;;
42036;SDS011;75222;52.004;5.908;2024-01-27T05:28:14;4.57;;;2.22;;
42036;SDS011;75222;52.004;5.908;2024-01-27T05:30:39;5.40;;;2.75;;
42036;SDS011;75222;52.004;5.908;2024-01-27T05:33:05;3.65;;;2.17;;
42036;SDS011;75222;52.004;5.908;2024-01-27T05:35:30;7.55;;;3.30;;
42036;SDS011;75222;52.004;5.908;2024-01-27T05:37:56;4.78;;;2.80;;
42036;SDS011;75222;52.004;5.908;2024-01-27T05:40:22;5.05;;;2.53;;
42036;SDS011;75222;52.004;5.908;2024-01-27T05:42:47;5.25;;;2.63;;
42036;SDS011;75222;52.004;5.908;2024-01-27T05:45:14;4.45;;;2.53;;
42036;SDS011;75222;52.004;5.908;2024-01-27T05:47:40;7.60;;;2.83;;
42036;SDS011;75222;52.004;5.908;2024-01-27T05:50:06;4.82;;;2.47;;
42036;SDS011;75222;52.004;5.908;2024-01-27T05:52:33;3.75;;;2.47;;
42036;SDS011;75222;52.004;5.908;2024-01-27T05:54:59;5.15;;;2.78;;
42036;SDS011;75222;52.004;5.908;2024-01-27T05:57:25;7.03;;;3.00;;
42036;SDS011;75222;52.004;5.908;2024-01-27T05:59:51;4.40;;;2.20;;
42036;SDS011;75222;52.004;5.908;2024-01-27T06:02:17;6.20;;;3.03;;
42036;SDS011;75222;52.004;5.908;2024-01-27T06:04:43;4.65;;;2.50;;
42036;SDS011;75222;52.004;5.908;2024-01-27T06:07:08;6.40;;;3.05;;
42036;SDS011;75222;52.004;5.908;2024-01-27T06:09:34;5.97;;;2.92;;
42036;SDS011;75222;52.004;5.908;2024-01-27T06:12:01;4.72;;;2.60;;
42036;SDS011;75222;52.004;5.908;2024-01-27T06:14:27;7.93;;;3.30;;
42036;SDS011;75222;52.004;5.908;2024-01-27T06:16:53;9.15;;;3.97;;
42036;SDS011;75222;52.004;5.908;2024-01-27T06:19:18;8.13;;;3.45;;
42036;SDS011;75222;52.004;5.908;2024-01-27T06:21:44;6.03;;;3.05;;
42036;SDS011;75222;52.004;5.908;2024-01-27T06:24:09;5.75;;;2.97;;
42036;SDS011;75222;52.004;5.908;2024-01-27T06:26:35;7.00;;;2.60;;
42036;SDS011;75222;52.004;5.908;2024-01-27T06:29:01;5.95;;;2.65;;
42036;SDS011;75222;52.004;5.908;2024-01-27T06:31:27;4.28;;;2.88;;
42036;SDS011;75222;52.004;5.908;2024-01-27T06:33:53;6.80;;;3.00;;
42036;SDS011;75222;52.004;5.908;2024-01-27T06:36:18;5.32;;;2.70;;
42036;SDS011;75222;52.004;5.908;2024-01-27T06:38:44;6.50;;;3.10;;
42036;SDS011;75222;52.004;5.908;2024-01-27T06:41:10;8.02;;;3.60;;
42036;SDS011;75222;52.004;5.908;2024-01-27T06:43:35;6.82;;;3.10;;
42036;SDS011;75222;52.004;5.908;2024-01-27T06:46:01;9.07;;;3.75;;
42036;SDS011;75222;52.004;5.908;2024-01-27T06:48:26;9.55;;;5.05;;
42036;SDS011;75222;52.004;5.908;2024-01-27T06:50:52;9.25;;;4.53;;
42036;SDS011;75222;52.004;5.908;2024-01-27T06:53:20;9.23;;;4.45;;
42036;SDS011;75222;52.004;5.908;2024-01-27T06:55:46;10.43;;;4.05;;
42036;SDS011;75222;52.004;5.908;2024-01-27T06:58:12;7.75;;;3.97;;
42036;SDS011;75222;52.004;5.908;2024-01-27T07:00:38;8.30;;;4.18;;
42036;SDS011;75222;52.004;5.908;2024-01-27T07:03:03;9.20;;;4.82;;
42036;SDS011;75222;52.004;5.908;2024-01-27T07:05:29;9.23;;;3.80;;
42036;SDS011;75222;52.004;5.908;2024-01-27T07:07:57;6.38;;;3.90;;
42036;SDS011;75222;52.004;5.908;2024-01-27T07:10:22;6.00;;;3.50;;
42036;SDS011;75222;52.004;5.908;2024-01-27T07:12:48;6.10;;;2.80;;
42036;SDS011;75222;52.004;5.908;2024-01-27T07:15:13;5.72;;;2.90;;
42036;SDS011;75222;52.004;5.908;2024-01-27T07:17:39;4.97;;;2.75;;
42036;SDS011;75222;52.004;5.908;2024-01-27T07:20:05;4.43;;;2.78;;
42036;SDS011;75222;52.004;5.908;2024-01-27T07:22:31;7.38;;;3.70;;
42036;SDS011;75222;52.004;5.908;2024-01-27T07:24:56;6.40;;;3.25;;
42036;SDS011;75222;52.004;5.908;2024-01-27T07:27:22;5.43;;;3.15;;
42036;SDS011;75222;52.004;5.908;2024-01-27T07:29:48;6.20;;;3.80;;
42036;SDS011;75222;52.004;5.908;2024-01-27T07:32:14;9.00;;;3.70;;
42036;SDS011;75222;52.004;5.908;2024-01-27T07:34:40;9.65;;;4.70;;
42036;SDS011;75222;52.004;5.908;2024-01-27T07:37:06;8.60;;;4.50;;
42036;SDS011;75222;52.004;5.908;2024-01-27T07:39:33;10.32;;;5.22;;
42036;SDS011;75222;52.004;5.908;2024-01-27T07:41:58;8.75;;;4.38;;
42036;SDS011;75222;52.004;5.908;2024-01-27T07:44:24;9.90;;;4.45;;
42036;SDS011;75222;52.004;5.908;2024-01-27T07:46:49;10.85;;;5.07;;
42036;SDS011;75222;52.004;5.908;2024-01-27T07:49:15;11.55;;;5.22;;
42036;SDS011;75222;52.004;5.908;2024-01-27T07:51:40;10.55;;;5.32;;
42036;SDS011;75222;52.004;5.908;2024-01-27T07:54:06;10.13;;;5.55;;
42036;SDS011;75222;52.004;5.908;2024-01-27T07:56:31;9.02;;;4.78;;
42036;SDS011;75222;52.004;5.908;2024-01-27T07:58:57;10.35;;;5.10;;
42036;SDS011;75222;52.004;5.908;2024-01-27T08:01:23;12.93;;;5.93;;
42036;SDS011;75222;52.004;5.908;2024-01-27T08:03:48;10.93;;;6.25;;
42036;SDS011;75222;52.004;5.908;2024-01-27T08:06:15;13.57;;;5.93;;
42036;SDS011;75222;52.004;5.908;2024-01-27T08:08:44;12.32;;;5.10;;
42036;SDS011;75222;52.004;5.908;2024-01-27T08:11:10;10.13;;;4.88;;
42036;SDS011;75222;52.004;5.908;2024-01-27T08:13:35;13.02;;;6.30;;
42036;SDS011;75222;52.004;5.908;2024-01-27T08:16:01;11.00;;;5.03;;
42036;SDS011;75222;52.004;5.908;2024-01-27T08:18:27;6.18;;;3.90;;
42036;SDS011;75222;52.004;5.908;2024-01-27T08:20:53;9.32;;;5.10;;
42036;SDS011;75222;52.004;5.908;2024-01-27T08:23:18;8.63;;;4.50;;
42036;SDS011;75222;52.004;5.908;2024-01-27T08:25:44;10.90;;;5.25;;
42036;SDS011;75222;52.004;5.908;2024-01-27T08:28:12;7.18;;;4.25;;
42036;SDS011;75222;52.004;5.908;2024-01-27T08:30:37;7.25;;;3.70;;
42036;SDS011;75222;52.004;5.908;2024-01-27T08:33:03;7.82;;;4.30;;
42036;SDS011;75222;52.004;5.908;2024-01-27T08:35:30;8.80;;;4.82;;
42036;SDS011;75222;52.004;5.908;2024-01-27T08:37:55;8.65;;;4.43;;
42036;SDS011;75222;52.004;5.908;2024-01-27T08:40:21;8.40;;;5.10;;
42036;SDS011;75222;52.004;5.908;2024-01-27T08:42:47;11.93;;;5.53;;
42036;SDS011;75222;52.004;5.908;2024-01-27T08:45:12;8.85;;;4.55;;
42036;SDS011;75222;52.004;5.908;2024-01-27T08:47:38;8.57;;;4.95;;
42036;SDS011;75222;52.004;5.908;2024-01-27T08:50:04;15.23;;;6.47;;
42036;SDS011;75222;52.004;5.908;2024-01-27T08:52:30;12.45;;;5.72;;
42036;SDS011;75222;52.004;5.908;2024-01-27T08:54:56;9.23;;;4.80;;
42036;SDS011;75222;52.004;5.908;2024-01-27T08:57:21;10.73;;;5.05;;
42036;SDS011;75222;52.004;5.908;2024-01-27T08:59:47;9.40;;;4.97;;
42036;SDS011;75222;52.004;5.908;2024-01-27T09:02:12;7.45;;;4.00;;
42036;SDS011;75222;52.004;5.908;2024-01-27T09:04:38;10.32;;;5.90;;
42036;SDS011;75222;52.004;5.908;2024-01-27T09:07:04;8.82;;;4.68;;
42036;SDS011;75222;52.004;5.908;2024-01-27T09:09:29;8.55;;;4.60;;
42036;SDS011;75222;52.004;5.908;2024-01-27T09:11:55;8.50;;;4.63;;
42036;SDS011;75222;52.004;5.908;2024-01-27T09:14:20;8.52;;;4.72;;
42036;SDS011;75222;52.004;5.908;2024-01-27T09:16:46;13.07;;;7.25;;
42036;SDS011;75222;52.004;5.908;2024-01-27T09:19:12;10.98;;;6.40;;
42036;SDS011;75222;52.004;5.908;2024-01-27T09:21:37;10.18;;;4.90;;
42036;SDS011;75222;52.004;5.908;2024-01-27T09:24:03;9.02;;;4.25;;
42036;SDS011;75222;52.004;5.908;2024-01-27T09:26:29;9.13;;;4.68;;
42036;SDS011;75222;52.004;5.908;2024-01-27T09:28:54;11.88;;;5.60;;
42036;SDS011;75222;52.004;5.908;2024-01-27T09:31:21;12.02;;;6.70;;
42036;SDS011;75222;52.004;5.908;2024-01-27T09:33:48;10.40;;;6.20;;
42036;SDS011;75222;52.004;5.908;2024-01-27T09:36:15;7.68;;;4.82;;
42036;SDS011;75222;52.004;5.908;2024-01-27T09:38:41;7.57;;;4.20;;
42036;SDS011;75222;52.004;5.908;2024-01-27T09:41:06;8.43;;;4.43;;
42036;SDS011;75222;52.004;5.908;2024-01-27T09:43:32;10.23;;;5.90;;
42036;SDS011;75222;52.004;5.908;2024-01-27T09:45:58;12.40;;;6.70;;
42036;SDS011;75222;52.004;5.908;2024-01-27T09:48:24;10.57;;;6.13;;
42036;SDS011;75222;52.004;5.908;2024-01-27T09:50:50;10.80;;;5.20;;
42036;SDS011;75222;52.004;5.908;2024-01-27T09:53:17;6.25;;;3.47;;
42036;SDS011;75222;52.004;5.908;2024-01-27T09:55:43;15.07;;;7.53;;
42036;SDS011;75222;52.004;5.908;2024-01-27T09:58:09;10.45;;;7.20;;
42036;SDS011;75222;52.004;5.908;2024-01-27T10:00:36;12.63;;;6.80;;
42036;SDS011;75222;52.004;5.908;2024-01-27T10:03:03;11.80;;;6.88;;
42036;SDS011;75222;52.004;5.908;2024-01-27T10:05:31;11.23;;;6.68;;
42036;SDS011;75222;52.004;5.908;2024-01-27T10:07:57;9.55;;;5.68;;
42036;SDS011;75222;52.004;5.908;2024-01-27T10:10:23;12.93;;;6.00;;
42036;SDS011;75222;52.004;5.908;2024-01-27T10:12:48;12.02;;;4.70;;
42036;SDS011;75222;52.004;5.908;2024-01-27T10:15:21;10.40;;;5.53;;
42036;SDS011;75222;52.004;5.908;2024-01-27T10:17:47;10.80;;;6.40;;
42036;SDS011;75222;52.004;5.908;2024-01-27T10:20:13;10.70;;;5.57;;
42036;SDS011;75222;52.004;5.908;2024-01-27T10:22:41;6.93;;;4.10;;
42036;SDS011;75222;52.004;5.908;2024-01-27T10:25:09;8.93;;;4.40;;
42036;SDS011;75222;52.004;5.908;2024-01-27T10:27:35;5.80;;;3.88;;
42036;SDS011;75222;52.004;5.908;2024-01-27T10:30:01;6.57;;;3.72;;
42036;SDS011;75222;52.004;5.908;2024-01-27T10:32:27;5.40;;;3.00;;
42036;SDS011;75222;52.004;5.908;2024-01-27T10:35:05;7.03;;;3.30;;
42036;SDS011;75222;52.004;5.908;2024-01-27T10:37:33;7.15;;;4.10;;
42036;SDS011;75222;52.004;5.908;2024-01-27T10:40:08;9.20;;;5.03;;
42036;SDS011;75222;52.004;5.908;2024-01-27T10:42:35;11.35;;;5.43;;
42036;SDS011;75222;52.004;5.908;2024-01-27T10:45:02;7.30;;;4.30;;
42036;SDS011;75222;52.004;5.908;2024-01-27T10:47:30;7.70;;;3.90;;
42036;SDS011;75222;52.004;5.908;2024-01-27T10:49:57;6.43;;;3.35;;
42036;SDS011;75222;52.004;5.908;2024-01-27T10:52:24;7.03;;;3.10;;
42036;SDS011;75222;52.004;5.908;2024-01-27T10:55:00;5.43;;;3.08;;
42036;SDS011;75222;52.004;5.908;2024-01-27T10:57:28;6.25;;;2.80;;
42036;SDS011;75222;52.004;5.908;2024-01-27T10:59:55;5.40;;;2.80;;
42036;SDS011;75222;52.004;5.908;2024-01-27T11:02:22;7.22;;;3.75;;
42036;SDS011;75222;52.004;5.908;2024-01-27T11:04:48;12.00;;;6.15;;
42036;SDS011;75222;52.004;5.908;2024-01-27T11:07:20;10.90;;;5.35;;
42036;SDS011;75222;52.004;5.908;2024-01-27T11:09:48;9.15;;;4.53;;
42036;SDS011;75222;52.004;5.908;2024-01-27T11:12:15;8.18;;;4.28;;
42036;SDS011;75222;52.004;5.908;2024-01-27T11:14:41;7.13;;;4.00;;
42036;SDS011;75222;52.004;5.908;2024-01-27T11:17:07;6.18;;;3.60;;
42036;SDS011;75222;52.004;5.908;2024-01-27T11:19:32;11.05;;;5.30;;
42036;SDS011;75222;52.004;5.908;2024-01-27T11:22:00;10.65;;;3.72;;
42036;SDS011;75222;52.004;5.908;2024-01-27T11:24:27;6.95;;;2.80;;
42036;SDS011;75222;52.004;5.908;2024-01-27T11:29:31;6.07;;;3.42;;
42036;SDS011;75222;52.004;5.908;2024-01-27T11:32:00;4.95;;;2.83;;
42036;SDS011;75222;52.004;5.908;2024-01-27T11:34:27;6.80;;;3.00;;
42036;SDS011;75222;52.004;5.908;2024-01-27T11:36:52;4.13;;;2.60;;
42036;SDS011;75222;52.004;5.908;2024-01-27T11:44:33;5.25;;;2.55;;
42036;SDS011;75222;52.004;5.908;2024-01-27T11:47:03;6.07;;;2.83;;
42036;SDS011;75222;52.004;5.908;2024-01-27T11:49:28;7.30;;;3.58;;
42036;SDS011;75222;52.004;5.908;2024-01-27T11:51:54;9.13;;;4.43;;
42036;SDS011;75222;52.004;5.908;2024-01-27T11:54:20;7.50;;;3.58;;
42036;SDS011;75222;52.004;5.908;2024-01-27T11:56:45;9.80;;;3.88;;
42036;SDS011;75222;52.004;5.908;2024-01-27T11:59:11;6.43;;;3.28;;
42036;SDS011;75222;52.004;5.908;2024-01-27T12:01:37;4.43;;;2.75;;
42036;SDS011;75222;52.004;5.908;2024-01-27T12:04:06;6.55;;;3.10;;
42036;SDS011;75222;52.004;5.908;2024-01-27T12:06:32;5.45;;;2.55;;
42036;SDS011;75222;52.004;5.908;2024-01-27T12:08:58;4.47;;;2.20;;
42036;SDS011;75222;52.004;5.908;2024-01-27T12:11:26;3.50;;;2.30;;
42036;SDS011;75222;52.004;5.908;2024-01-27T12:13:52;3.15;;;2.13;;
42036;SDS011;75222;52.004;5.908;2024-01-27T12:16:18;4.88;;;2.63;;
42036;SDS011;75222;52.004;5.908;2024-01-27T12:18:46;7.53;;;3.63;;
42036;SDS011;75222;52.004;5.908;2024-01-27T12:21:12;11.13;;;4.70;;
42036;SDS011;75222;52.004;5.908;2024-01-27T12:23:49;6.43;;;3.92;;
42036;SDS011;75222;52.004;5.908;2024-01-27T12:26:15;8.15;;;3.28;;
42036;SDS011;75222;52.004;5.908;2024-01-27T12:28:41;7.05;;;2.80;;
42036;SDS011;75222;52.004;5.908;2024-01-27T12:31:06;5.50;;;2.40;;
42036;SDS011;75222;52.004;5.908;2024-01-27T12:33:32;9.20;;;3.40;;
42036;SDS011;75222;52.004;5.908;2024-01-27T12:35:57;5.60;;;2.33;;
42036;SDS011;75222;52.004;5.908;2024-01-27T12:38:23;8.63;;;3.40;;
42036;SDS011;75222;52.004;5.908;2024-01-27T12:40:48;5.20;;;2.70;;
42036;SDS011;75222;52.004;5.908;2024-01-27T12:43:14;6.03;;;3.45;;
42036;SDS011;75222;52.004;5.908;2024-01-27T12:45:40;7.85;;;3.00;;
42036;SDS011;75222;52.004;5.908;2024-01-27T12:48:06;8.00;;;3.60;;
42036;SDS011;75222;52.004;5.908;2024-01-27T12:50:32;7.65;;;3.45;;
42036;SDS011;75222;52.004;5.908;2024-01-27T12:52:58;4.63;;;2.08;;
42036;SDS011;75222;52.004;5.908;2024-01-27T12:55:24;3.90;;;2.10;;
42036;SDS011;75222;52.004;5.908;2024-01-27T12:57:49;5.10;;;2.17;;
42036;SDS011;75222;52.004;5.908;2024-01-27T13:00:15;5.80;;;3.63;;
42036;SDS011;75222;52.004;5.908;2024-01-27T13:02:42;6.72;;;3.00;;
42036;SDS011;75222;52.004;5.908;2024-01-27T13:05:08;10.32;;;3.85;;
42036;SDS011;75222;52.004;5.908;2024-01-27T13:07:34;4.57;;;2.42;;
42036;SDS011;75222;52.004;5.908;2024-01-27T13:10:00;6.80;;;2.45;;
42036;SDS011;75222;52.004;5.908;2024-01-27T13:12:26;4.55;;;1.95;;
42036;SDS011;75222;52.004;5.908;2024-01-27T13:14:51;4.75;;;2.75;;
42036;SDS011;75222;52.004;5.908;2024-01-27T13:17:17;5.95;;;2.20;;
42036;SDS011;75222;52.004;5.908;2024-01-27T13:19:44;4.30;;;1.60;;
42036;SDS011;75222;52.004;5.908;2024-01-27T13:22:10;3.45;;;1.60;;
42036;SDS011;75222;52.004;5.908;2024-01-27T13:24:37;3.13;;;1.70;;
42036;SDS011;75222;52.004;5.908;2024-01-27T13:27:03;3.72;;;2.03;;
42036;SDS011;75222;52.004;5.908;2024-01-27T13:29:30;6.15;;;2.70;;
42036;SDS011;75222;52.004;5.908;2024-01-27T13:31:57;6.40;;;2.70;;
42036;SDS011;75222;52.004;5.908;2024-01-27T13:34:23;5.05;;;2.22;;
42036;SDS011;75222;52.004;5.908;2024-01-27T13:36:49;3.55;;;1.85;;
42036;SDS011;75222;52.004;5.908;2024-01-27T13:39:14;4.45;;;1.88;;
42036;SDS011;75222;52.004;5.908;2024-01-27T13:41:40;5.38;;;1.73;;
42036;SDS011;75222;52.004;5.908;2024-01-27T13:44:05;6.57;;;1.90;;
42036;SDS011;75222;52.004;5.908;2024-01-27T13:46:31;4.55;;;2.08;;
42036;SDS011;75222;52.004;5.908;2024-01-27T13:48:56;4.82;;;1.95;;
42036;SDS011;75222;52.004;5.908;2024-01-27T13:51:22;6.72;;;2.30;;
42036;SDS011;75222;52.004;5.908;2024-01-27T13:53:48;5.68;;;2.10;;
42036;SDS011;75222;52.004;5.908;2024-01-27T13:56:13;5.50;;;2.17;;
42036;SDS011;75222;52.004;5.908;2024-01-27T13:58:39;4.93;;;1.70;;
42036;SDS011;75222;52.004;5.908;2024-01-27T14:01:05;2.38;;;1.52;;
42036;SDS011;75222;52.004;5.908;2024-01-27T14:03:31;3.33;;;1.67;;
42036;SDS011;75222;52.004;5.908;2024-01-27T14:05:56;4.82;;;1.85;;
42036;SDS011;75222;52.004;5.908;2024-01-27T14:08:22;3.45;;;1.70;;
42036;SDS011;75222;52.004;5.908;2024-01-27T14:10:48;2.53;;;1.27;;
42036;SDS011;75222;52.004;5.908;2024-01-27T14:13:15;3.92;;;1.70;;
42036;SDS011;75222;52.004;5.908;2024-01-27T14:15:41;4.38;;;1.70;;
42036;SDS011;75222;52.004;5.908;2024-01-27T14:18:06;5.65;;;1.95;;
42036;SDS011;75222;52.004;5.908;2024-01-27T14:20:32;3.22;;;1.70;;
42036;SDS011;75222;52.004;5.908;2024-01-27T14:23:02;4.07;;;1.58;;
42036;SDS011;75222;52.004;5.908;2024-01-27T14:25:28;4.82;;;1.30;;
42036;SDS011;75222;52.004;5.908;2024-01-27T14:27:54;2.55;;;1.40;;
42036;SDS011;75222;52.004;5.908;2024-01-27T14:30:20;3.17;;;1.40;;
42036;SDS011;75222;52.004;5.908;2024-01-27T14:32:45;3.17;;;1.50;;
42036;SDS011;75222;52.004;5.908;2024-01-27T14:35:11;2.47;;;1.65;;
42036;SDS011;75222;52.004;5.908;2024-01-27T14:37:36;4.70;;;1.60;;
42036;SDS011;75222;52.004;5.908;2024-01-27T14:40:03;4.65;;;1.70;;
42036;SDS011;75222;52.004;5.908;2024-01-27T14:42:29;6.25;;;2.58;;
42036;SDS011;75222;52.004;5.908;2024-01-27T14:44:55;7.93;;;2.70;;